sensor_id;sensor_type;location;lat;lon;timestamp;P1;durP1;ratioP1;P2;durP2;ratioP2
15404;SDS011;7801;48.124;11.590;2024-01-30T00:00:10;1.70;;;1.70;;
15404;SDS011;7801;48.124;11.590;2024-01-30T00:02:35;2.73;;;2.53;;
15404;SDS011;7801;48.124;11.590;2024-01-30T00:05:05;2.27;;;2.17;;
15404;SDS011;7801;48.124;11.590;2024-01-30T00:07:31;2.03;;;1.93;;
15404;SDS011;7801;48.124;11.590;2024-01-30T00:09:57;1.90;;;1.80;;
15404;SDS011;7801;48.124;11.590;2024-01-30T00:12:22;3.00;;;2.77;;
15404;SDS011;7801;48.124;11.590;2024-01-30T00:14:51;2.23;;;2.03;;
15404;SDS011;7801;48.124;11.590;2024-01-30T00:17:19;1.93;;;1.83;;
15404;SDS011;7801;48.124;11.590;2024-01-30T00:19:46;4.53;;;2.27;;
15404;SDS011;7801;48.124;11.590;2024-01-30T00:22:13;2.83;;;2.37;;
15404;SDS011;7801;48.124;11.590;2024-01-30T00:24:38;2.50;;;2.40;;
15404;SDS011;7801;48.124;11.590;2024-01-30T00:27:04;1.53;;;1.53;;
15404;SDS011;7801;48.124;11.590;2024-01-30T00:29:31;1.77;;;1.77;;
15404;SDS011;7801;48.124;11.590;2024-01-30T00:31:59;2.53;;;2.43;;
15404;SDS011;7801;48.124;11.590;2024-01-30T00:34:27;2.60;;;2.50;;
15404;SDS011;7801;48.124;11.590;2024-01-30T00:36:53;2.37;;;2.17;;
15404;SDS011;7801;48.124;11.590;2024-01-30T00:39:18;4.67;;;2.23;;
15404;SDS011;7801;48.124;11.590;2024-01-30T00:41:45;2.27;;;1.77;;
15404;SDS011;7801;48.124;11.590;2024-01-30T00:44:11;3.20;;;3.00;;
15404;SDS011;7801;48.124;11.590;2024-01-30T00:46:36;2.33;;;2.23;;
15404;SDS011;7801;48.124;11.590;2024-01-30T00:49:04;2.10;;;2.00;;
15404;SDS011;7801;48.124;11.590;2024-01-30T00:51:29;5.03;;;2.53;;
15404;SDS011;7801;48.124;11.590;2024-01-30T00:53:55;2.30;;;1.77;;
15404;SDS011;7801;48.124;11.590;2024-01-30T00:56:21;1.70;;;1.60;;
15404;SDS011;7801;48.124;11.590;2024-01-30T00:58:47;2.40;;;1.63;;
15404;SDS011;7801;48.124;11.590;2024-01-30T01:01:12;2.47;;;2.27;;
15404;SDS011;7801;48.124;11.590;2024-01-30T01:03:38;2.77;;;2.67;;
15404;SDS011;7801;48.124;11.590;2024-01-30T01:06:06;2.10;;;2.00;;
15404;SDS011;7801;48.124;11.590;2024-01-30T01:08:31;2.00;;;1.90;;
15404;SDS011;7801;48.124;11.590;2024-01-30T01:10:57;2.10;;;2.00;;
15404;SDS011;7801;48.124;11.590;2024-01-30T01:13:24;1.57;;;1.57;;
15404;SDS011;7801;48.124;11.590;2024-01-30T01:15:51;1.83;;;1.53;;
15404;SDS011;7801;48.124;11.590;2024-01-30T01:18:18;1.93;;;1.83;;
15404;SDS011;7801;48.124;11.590;2024-01-30T01:20:43;1.97;;;1.83;;
15404;SDS011;7801;48.124;11.590;2024-01-30T01:23:11;3.17;;;1.77;;
15404;SDS011;7801;48.124;11.590;2024-01-30T01:25:38;3.07;;;1.50;;
15404;SDS011;7801;48.124;11.590;2024-01-30T01:28:04;1.87;;;1.77;;
15404;SDS011;7801;48.124;11.590;2024-01-30T01:30:30;4.73;;;1.80;;
15404;SDS011;7801;48.124;11.590;2024-01-30T01:32:55;2.13;;;1.60;;
15404;SDS011;7801;48.124;11.590;2024-01-30T01:35:29;2.10;;;2.00;;
15404;SDS011;7801;48.124;11.590;2024-01-30T01:37:54;2.77;;;2.13;;
15404;SDS011;7801;48.124;11.590;2024-01-30T01:40:22;1.70;;;1.70;;
15404;SDS011;7801;48.124;11.590;2024-01-30T01:42:50;2.10;;;1.90;;
15404;SDS011;7801;48.124;11.590;2024-01-30T01:45:20;0.90;;;0.90;;
15404;SDS011;7801;48.124;11.590;2024-01-30T01:47:50;1.97;;;1.83;;
15404;SDS011;7801;48.124;11.590;2024-01-30T01:50:18;1.73;;;1.63;;
15404;SDS011;7801;48.124;11.590;2024-01-30T01:52:49;1.40;;;1.30;;
15404;SDS011;7801;48.124;11.590;2024-01-30T01:55:15;2.93;;;2.83;;
15404;SDS011;7801;48.124;11.590;2024-01-30T01:57:44;1.43;;;1.33;;
15404;SDS011;7801;48.124;11.590;2024-01-30T02:00:14;1.60;;;1.53;;
15404;SDS011;7801;48.124;11.590;2024-01-30T02:02:42;1.47;;;1.37;;
15404;SDS011;7801;48.124;11.590;2024-01-30T02:05:10;2.87;;;2.67;;
15404;SDS011;7801;48.124;11.590;2024-01-30T02:07:36;1.87;;;1.77;;
15404;SDS011;7801;48.124;11.590;2024-01-30T02:10:03;2.50;;;2.30;;
15404;SDS011;7801;48.124;11.590;2024-01-30T02:12:33;2.60;;;2.40;;
15404;SDS011;7801;48.124;11.590;2024-01-30T02:15:00;1.87;;;1.57;;
15404;SDS011;7801;48.124;11.590;2024-01-30T02:17:27;4.53;;;2.20;;
15404;SDS011;7801;48.124;11.590;2024-01-30T02:19:54;2.47;;;2.27;;
15404;SDS011;7801;48.124;11.590;2024-01-30T02:22:20;2.60;;;2.40;;
15404;SDS011;7801;48.124;11.590;2024-01-30T02:24:46;4.13;;;1.27;;
15404;SDS011;7801;48.124;11.590;2024-01-30T02:27:13;1.97;;;1.50;;
15404;SDS011;7801;48.124;11.590;2024-01-30T02:29:39;1.60;;;1.50;;
15404;SDS011;7801;48.124;11.590;2024-01-30T02:32:05;1.23;;;1.23;;
15404;SDS011;7801;48.124;11.590;2024-01-30T02:34:33;1.60;;;1.50;;
15404;SDS011;7801;48.124;11.590;2024-01-30T02:37:00;2.30;;;1.47;;
15404;SDS011;7801;48.124;11.590;2024-01-30T02:39:26;2.07;;;1.97;;
15404;SDS011;7801;48.124;11.590;2024-01-30T02:41:52;2.13;;;1.93;;
15404;SDS011;7801;48.124;11.590;2024-01-30T02:44:18;3.17;;;1.37;;
15404;SDS011;7801;48.124;11.590;2024-01-30T02:46:44;2.73;;;2.53;;
15404;SDS011;7801;48.124;11.590;2024-01-30T02:49:10;2.10;;;2.00;;
15404;SDS011;7801;48.124;11.590;2024-01-30T02:51:36;1.97;;;1.73;;
15404;SDS011;7801;48.124;11.590;2024-01-30T02:54:03;1.63;;;1.63;;
15404;SDS011;7801;48.124;11.590;2024-01-30T02:56:28;1.87;;;1.60;;
15404;SDS011;7801;48.124;11.590;2024-01-30T02:58:54;1.43;;;1.43;;
15404;SDS011;7801;48.124;11.590;2024-01-30T03:01:21;2.27;;;1.37;;
15404;SDS011;7801;48.124;11.590;2024-01-30T03:03:47;0.90;;;0.90;;
15404;SDS011;7801;48.124;11.590;2024-01-30T03:06:12;1.20;;;1.20;;
15404;SDS011;7801;48.124;11.590;2024-01-30T03:08:41;1.80;;;1.53;;
15404;SDS011;7801;48.124;11.590;2024-01-30T03:11:06;1.60;;;1.50;;
15404;SDS011;7801;48.124;11.590;2024-01-30T03:13:34;1.33;;;1.33;;
15404;SDS011;7801;48.124;11.590;2024-01-30T03:16:00;1.23;;;1.13;;
15404;SDS011;7801;48.124;11.590;2024-01-30T03:18:26;1.80;;;1.70;;
15404;SDS011;7801;48.124;11.590;2024-01-30T03:20:51;1.50;;;1.40;;
15404;SDS011;7801;48.124;11.590;2024-01-30T03:23:16;1.87;;;1.77;;
15404;SDS011;7801;48.124;11.590;2024-01-30T03:25:43;1.33;;;1.23;;
15404;SDS011;7801;48.124;11.590;2024-01-30T03:28:09;4.77;;;2.03;;
15404;SDS011;7801;48.124;11.590;2024-01-30T03:30:37;1.80;;;1.70;;
15404;SDS011;7801;48.124;11.590;2024-01-30T03:33:03;1.20;;;1.20;;
15404;SDS011;7801;48.124;11.590;2024-01-30T03:35:28;1.70;;;1.60;;
15404;SDS011;7801;48.124;11.590;2024-01-30T03:37:53;1.50;;;1.40;;
15404;SDS011;7801;48.124;11.590;2024-01-30T03:40:20;1.10;;;1.10;;
15404;SDS011;7801;48.124;11.590;2024-01-30T03:42:47;1.57;;;1.47;;
15404;SDS011;7801;48.124;11.590;2024-01-30T03:45:14;0.70;;;0.70;;
15404;SDS011;7801;48.124;11.590;2024-01-30T03:47:45;1.00;;;1.00;;
15404;SDS011;7801;48.124;11.590;2024-01-30T03:50:10;1.33;;;1.30;;
15404;SDS011;7801;48.124;11.590;2024-01-30T03:52:35;1.43;;;1.43;;
15404;SDS011;7801;48.124;11.590;2024-01-30T03:55:00;1.60;;;1.60;;
15404;SDS011;7801;48.124;11.590;2024-01-30T03:57:26;0.83;;;0.83;;
15404;SDS011;7801;48.124;11.590;2024-01-30T03:59:53;0.90;;;0.90;;
15404;SDS011;7801;48.124;11.590;2024-01-30T04:02:21;1.50;;;1.40;;
15404;SDS011;7801;48.124;11.590;2024-01-30T04:04:47;1.10;;;1.10;;
15404;SDS011;7801;48.124;11.590;2024-01-30T04:07:12;0.60;;;0.60;;
15404;SDS011;7801;48.124;11.590;2024-01-30T04:09:40;1.17;;;1.17;;
15404;SDS011;7801;48.124;11.590;2024-01-30T04:12:07;1.50;;;1.50;;
15404;SDS011;7801;48.124;11.590;2024-01-30T04:14:32;3.10;;;1.73;;
15404;SDS011;7801;48.124;11.590;2024-01-30T04:16:57;1.77;;;1.67;;
15404;SDS011;7801;48.124;11.590;2024-01-30T04:19:23;0.80;;;0.80;;
15404;SDS011;7801;48.124;11.590;2024-01-30T04:21:51;1.53;;;1.30;;
15404;SDS011;7801;48.124;11.590;2024-01-30T04:24:16;1.00;;;1.00;;
15404;SDS011;7801;48.124;11.590;2024-01-30T04:26:44;0.93;;;0.93;;
15404;SDS011;7801;48.124;11.590;2024-01-30T04:29:09;1.10;;;1.10;;
15404;SDS011;7801;48.124;11.590;2024-01-30T04:31:36;1.17;;;1.07;;
15404;SDS011;7801;48.124;11.590;2024-01-30T04:34:01;1.77;;;1.67;;
15404;SDS011;7801;48.124;11.590;2024-01-30T04:36:30;1.13;;;1.03;;
15404;SDS011;7801;48.124;11.590;2024-01-30T04:38:56;3.80;;;1.90;;
15404;SDS011;7801;48.124;11.590;2024-01-30T04:41:23;1.43;;;1.20;;
15404;SDS011;7801;48.124;11.590;2024-01-30T04:43:49;0.50;;;0.50;;
15404;SDS011;7801;48.124;11.590;2024-01-30T04:46:15;1.00;;;1.00;;
15404;SDS011;7801;48.124;11.590;2024-01-30T04:48:43;8.93;;;2.03;;
15404;SDS011;7801;48.124;11.590;2024-01-30T04:51:09;1.13;;;1.13;;
15404;SDS011;7801;48.124;11.590;2024-01-30T04:53:34;0.93;;;0.93;;
15404;SDS011;7801;48.124;11.590;2024-01-30T04:56:00;0.80;;;0.80;;
15404;SDS011;7801;48.124;11.590;2024-01-30T04:58:27;1.20;;;1.20;;
15404;SDS011;7801;48.124;11.590;2024-01-30T05:00:55;1.43;;;1.37;;
15404;SDS011;7801;48.124;11.590;2024-01-30T05:03:20;1.70;;;1.60;;
15404;SDS011;7801;48.124;11.590;2024-01-30T05:05:47;1.37;;;1.37;;
15404;SDS011;7801;48.124;11.590;2024-01-30T05:08:13;1.87;;;1.53;;
15404;SDS011;7801;48.124;11.590;2024-01-30T05:10:38;0.83;;;0.83;;
15404;SDS011;7801;48.124;11.590;2024-01-30T05:13:05;1.50;;;1.40;;
15404;SDS011;7801;48.124;11.590;2024-01-30T05:15:31;0.93;;;0.93;;
15404;SDS011;7801;48.124;11.590;2024-01-30T05:17:59;1.73;;;1.63;;
15404;SDS011;7801;48.124;11.590;2024-01-30T05:20:26;1.97;;;1.50;;
15404;SDS011;7801;48.124;11.590;2024-01-30T05:22:54;1.07;;;1.07;;
15404;SDS011;7801;48.124;11.590;2024-01-30T05:25:20;0.80;;;0.80;;
15404;SDS011;7801;48.124;11.590;2024-01-30T05:27:46;1.70;;;1.60;;
15404;SDS011;7801;48.124;11.590;2024-01-30T05:30:12;1.97;;;1.40;;
15404;SDS011;7801;48.124;11.590;2024-01-30T05:32:38;0.87;;;0.87;;
15404;SDS011;7801;48.124;11.590;2024-01-30T05:35:05;0.97;;;0.97;;
15404;SDS011;7801;48.124;11.590;2024-01-30T05:37:32;0.90;;;0.90;;
15404;SDS011;7801;48.124;11.590;2024-01-30T05:39:58;1.30;;;1.20;;
15404;SDS011;7801;48.124;11.590;2024-01-30T05:42:23;1.23;;;1.23;;
15404;SDS011;7801;48.124;11.590;2024-01-30T05:44:49;1.20;;;1.10;;
15404;SDS011;7801;48.124;11.590;2024-01-30T05:47:17;1.60;;;0.97;;
15404;SDS011;7801;48.124;11.590;2024-01-30T05:49:44;7.43;;;1.80;;
15404;SDS011;7801;48.124;11.590;2024-01-30T05:52:09;0.90;;;0.90;;
15404;SDS011;7801;48.124;11.590;2024-01-30T05:54:35;1.83;;;1.23;;
15404;SDS011;7801;48.124;11.590;2024-01-30T05:57:02;2.07;;;1.67;;
15404;SDS011;7801;48.124;11.590;2024-01-30T05:59:27;0.97;;;0.97;;
15404;SDS011;7801;48.124;11.590;2024-01-30T06:01:54;1.60;;;1.50;;
15404;SDS011;7801;48.124;11.590;2024-01-30T06:04:21;0.90;;;0.90;;
15404;SDS011;7801;48.124;11.590;2024-01-30T06:06:47;0.80;;;0.80;;
15404;SDS011;7801;48.124;11.590;2024-01-30T06:09:13;1.10;;;1.10;;
15404;SDS011;7801;48.124;11.590;2024-01-30T06:11:39;1.10;;;1.10;;
15404;SDS011;7801;48.124;11.590;2024-01-30T06:14:04;1.83;;;1.73;;
15404;SDS011;7801;48.124;11.590;2024-01-30T06:16:30;1.23;;;1.13;;
15404;SDS011;7801;48.124;11.590;2024-01-30T06:18:56;0.87;;;0.87;;
15404;SDS011;7801;48.124;11.590;2024-01-30T06:21:23;1.03;;;0.93;;
15404;SDS011;7801;48.124;11.590;2024-01-30T06:23:50;0.90;;;0.90;;
15404;SDS011;7801;48.124;11.590;2024-01-30T06:26:15;1.90;;;1.13;;
15404;SDS011;7801;48.124;11.590;2024-01-30T06:28:42;1.47;;;1.37;;
15404;SDS011;7801;48.124;11.590;2024-01-30T06:31:07;1.07;;;0.90;;
15404;SDS011;7801;48.124;11.590;2024-01-30T06:33:34;0.67;;;0.67;;
15404;SDS011;7801;48.124;11.590;2024-01-30T06:36:01;3.03;;;1.40;;
15404;SDS011;7801;48.124;11.590;2024-01-30T06:38:27;1.00;;;1.00;;
15404;SDS011;7801;48.124;11.590;2024-01-30T06:40:53;0.87;;;0.87;;
15404;SDS011;7801;48.124;11.590;2024-01-30T06:43:20;1.00;;;1.00;;
15404;SDS011;7801;48.124;11.590;2024-01-30T06:45:45;1.03;;;1.03;;
15404;SDS011;7801;48.124;11.590;2024-01-30T06:48:12;1.03;;;0.97;;
15404;SDS011;7801;48.124;11.590;2024-01-30T06:50:38;2.77;;;1.30;;
15404;SDS011;7801;48.124;11.590;2024-01-30T06:53:03;1.07;;;1.07;;
15404;SDS011;7801;48.124;11.590;2024-01-30T06:55:29;1.20;;;1.20;;
15404;SDS011;7801;48.124;11.590;2024-01-30T06:57:56;0.80;;;0.80;;
15404;SDS011;7801;48.124;11.590;2024-01-30T07:00:21;1.53;;;1.10;;
15404;SDS011;7801;48.124;11.590;2024-01-30T07:02:50;1.03;;;1.00;;
15404;SDS011;7801;48.124;11.590;2024-01-30T07:05:16;1.50;;;1.40;;
15404;SDS011;7801;48.124;11.590;2024-01-30T07:07:42;3.40;;;1.40;;
15404;SDS011;7801;48.124;11.590;2024-01-30T07:10:09;1.10;;;1.07;;
15404;SDS011;7801;48.124;11.590;2024-01-30T07:12:35;5.90;;;1.17;;
15404;SDS011;7801;48.124;11.590;2024-01-30T07:15:01;1.33;;;1.13;;
15404;SDS011;7801;48.124;11.590;2024-01-30T07:17:28;1.10;;;1.10;;
15404;SDS011;7801;48.124;11.590;2024-01-30T07:19:55;1.00;;;1.00;;
15404;SDS011;7801;48.124;11.590;2024-01-30T07:22:20;0.93;;;0.93;;
15404;SDS011;7801;48.124;11.590;2024-01-30T07:24:45;2.37;;;1.10;;
15404;SDS011;7801;48.124;11.590;2024-01-30T07:27:14;1.63;;;1.53;;
15404;SDS011;7801;48.124;11.590;2024-01-30T07:29:42;0.77;;;0.70;;
15404;SDS011;7801;48.124;11.590;2024-01-30T07:32:09;3.60;;;1.67;;
15404;SDS011;7801;48.124;11.590;2024-01-30T07:34:37;1.17;;;1.17;;
15404;SDS011;7801;48.124;11.590;2024-01-30T07:37:02;1.10;;;1.10;;
15404;SDS011;7801;48.124;11.590;2024-01-30T07:39:29;1.70;;;1.60;;
15404;SDS011;7801;48.124;11.590;2024-01-30T07:41:57;1.70;;;1.50;;
15404;SDS011;7801;48.124;11.590;2024-01-30T07:44:25;1.47;;;1.37;;
15404;SDS011;7801;48.124;11.590;2024-01-30T07:46:53;0.97;;;0.97;;
15404;SDS011;7801;48.124;11.590;2024-01-30T07:49:20;1.10;;;1.10;;
15404;SDS011;7801;48.124;11.590;2024-01-30T07:51:48;0.53;;;0.53;;
15404;SDS011;7801;48.124;11.590;2024-01-30T07:54:15;0.40;;;0.40;;
15404;SDS011;7801;48.124;11.590;2024-01-30T07:56:42;0.83;;;0.63;;
15404;SDS011;7801;48.124;11.590;2024-01-30T07:59:11;1.10;;;1.10;;
15404;SDS011;7801;48.124;11.590;2024-01-30T08:01:37;4.23;;;0.83;;
15404;SDS011;7801;48.124;11.590;2024-01-30T08:04:03;0.50;;;0.50;;
15404;SDS011;7801;48.124;11.590;2024-01-30T08:06:31;0.80;;;0.80;;
15404;SDS011;7801;48.124;11.590;2024-01-30T08:08:57;1.17;;;0.90;;
15404;SDS011;7801;48.124;11.590;2024-01-30T08:11:25;0.93;;;0.93;;
15404;SDS011;7801;48.124;11.590;2024-01-30T08:13:53;1.60;;;0.83;;
15404;SDS011;7801;48.124;11.590;2024-01-30T08:16:23;1.07;;;1.07;;
15404;SDS011;7801;48.124;11.590;2024-01-30T08:18:50;0.73;;;0.73;;
15404;SDS011;7801;48.124;11.590;2024-01-30T08:21:15;0.90;;;0.90;;
15404;SDS011;7801;48.124;11.590;2024-01-30T08:23:42;0.90;;;0.90;;
15404;SDS011;7801;48.124;11.590;2024-01-30T08:26:07;0.50;;;0.50;;
15404;SDS011;7801;48.124;11.590;2024-01-30T08:28:33;4.50;;;0.97;;
15404;SDS011;7801;48.124;11.590;2024-01-30T08:31:01;0.97;;;0.97;;
15404;SDS011;7801;48.124;11.590;2024-01-30T08:33:26;0.60;;;0.60;;
15404;SDS011;7801;48.124;11.590;2024-01-30T08:35:54;0.97;;;0.97;;
15404;SDS011;7801;48.124;11.590;2024-01-30T08:38:20;0.83;;;0.83;;
15404;SDS011;7801;48.124;11.590;2024-01-30T08:40:46;0.47;;;0.47;;
15404;SDS011;7801;48.124;11.590;2024-01-30T08:43:12;1.00;;;1.00;;
15404;SDS011;7801;48.124;11.590;2024-01-30T08:45:40;0.67;;;0.67;;
15404;SDS011;7801;48.124;11.590;2024-01-30T08:48:07;0.93;;;0.93;;
15404;SDS011;7801;48.124;11.590;2024-01-30T08:50:33;1.10;;;1.10;;
15404;SDS011;7801;48.124;11.590;2024-01-30T08:53:01;0.57;;;0.57;;
15404;SDS011;7801;48.124;11.590;2024-01-30T08:55:27;1.67;;;1.57;;
15404;SDS011;7801;48.124;11.590;2024-01-30T08:57:55;2.47;;;1.40;;
15404;SDS011;7801;48.124;11.590;2024-01-30T09:00:20;0.97;;;0.80;;
15404;SDS011;7801;48.124;11.590;2024-01-30T09:02:45;0.43;;;0.43;;
15404;SDS011;7801;48.124;11.590;2024-01-30T09:05:13;5.50;;;1.40;;
15404;SDS011;7801;48.124;11.590;2024-01-30T09:07:38;1.33;;;0.93;;
15404;SDS011;7801;48.124;11.590;2024-01-30T09:10:04;0.80;;;0.80;;
15404;SDS011;7801;48.124;11.590;2024-01-30T09:12:30;1.10;;;1.00;;
15404;SDS011;7801;48.124;11.590;2024-01-30T09:14:57;1.13;;;1.13;;
15404;SDS011;7801;48.124;11.590;2024-01-30T09:17:24;0.93;;;0.93;;
15404;SDS011;7801;48.124;11.590;2024-01-30T09:19:51;0.67;;;0.67;;
15404;SDS011;7801;48.124;11.590;2024-01-30T09:22:16;2.17;;;1.30;;
15404;SDS011;7801;48.124;11.590;2024-01-30T09:24:43;1.60;;;1.50;;
15404;SDS011;7801;48.124;11.590;2024-01-30T09:27:10;6.40;;;1.57;;
15404;SDS011;7801;48.124;11.590;2024-01-30T09:29:35;0.70;;;0.70;;
15404;SDS011;7801;48.124;11.590;2024-01-30T09:32:01;6.77;;;1.10;;
15404;SDS011;7801;48.124;11.590;2024-01-30T09:34:28;0.40;;;0.40;;
15404;SDS011;7801;48.124;11.590;2024-01-30T09:36:53;0.80;;;0.80;;
15404;SDS011;7801;48.124;11.590;2024-01-30T09:39:18;1.60;;;0.80;;
15404;SDS011;7801;48.124;11.590;2024-01-30T09:41:48;0.73;;;0.73;;
15404;SDS011;7801;48.124;11.590;2024-01-30T09:44:19;1.67;;;1.57;;
15404;SDS011;7801;48.124;11.590;2024-01-30T09:46:47;0.90;;;0.90;;
15404;SDS011;7801;48.124;11.590;2024-01-30T09:49:15;0.90;;;0.83;;
15404;SDS011;7801;48.124;11.590;2024-01-30T09:51:42;1.17;;;1.10;;
15404;SDS011;7801;48.124;11.590;2024-01-30T09:54:10;0.60;;;0.60;;
15404;SDS011;7801;48.124;11.590;2024-01-30T09:56:39;0.73;;;0.73;;
15404;SDS011;7801;48.124;11.590;2024-01-30T09:59:04;0.70;;;0.70;;
15404;SDS011;7801;48.124;11.590;2024-01-30T10:01:31;0.67;;;0.67;;
15404;SDS011;7801;48.124;11.590;2024-01-30T10:03:58;0.50;;;0.50;;
15404;SDS011;7801;48.124;11.590;2024-01-30T10:06:24;0.73;;;0.73;;
15404;SDS011;7801;48.124;11.590;2024-01-30T10:08:52;1.27;;;1.00;;
15404;SDS011;7801;48.124;11.590;2024-01-30T10:11:19;0.30;;;0.30;;
15404;SDS011;7801;48.124;11.590;2024-01-30T10:13:46;1.13;;;1.00;;
15404;SDS011;7801;48.124;11.590;2024-01-30T10:16:13;0.60;;;0.60;;
15404;SDS011;7801;48.124;11.590;2024-01-30T10:18:41;0.63;;;0.43;;
15404;SDS011;7801;48.124;11.590;2024-01-30T10:21:08;1.83;;;1.13;;
15404;SDS011;7801;48.124;11.590;2024-01-30T10:23:34;4.63;;;0.77;;
15404;SDS011;7801;48.124;11.590;2024-01-30T10:26:03;1.07;;;0.40;;
15404;SDS011;7801;48.124;11.590;2024-01-30T10:28:30;0.97;;;0.87;;
15404;SDS011;7801;48.124;11.590;2024-01-30T10:30:59;0.80;;;0.70;;
15404;SDS011;7801;48.124;11.590;2024-01-30T10:33:25;1.13;;;0.77;;
15404;SDS011;7801;48.124;11.590;2024-01-30T10:36:01;0.67;;;0.67;;
15404;SDS011;7801;48.124;11.590;2024-01-30T10:38:29;0.67;;;0.67;;
15404;SDS011;7801;48.124;11.590;2024-01-30T10:40:59;0.50;;;0.47;;
15404;SDS011;7801;48.124;11.590;2024-01-30T10:43:30;0.70;;;0.70;;
15404;SDS011;7801;48.124;11.590;2024-01-30T10:46:08;0.77;;;0.77;;
15404;SDS011;7801;48.124;11.590;2024-01-30T10:48:39;0.40;;;0.40;;
15404;SDS011;7801;48.124;11.590;2024-01-30T10:51:10;1.37;;;1.27;;
15404;SDS011;7801;48.124;11.590;2024-01-30T10:53:37;0.43;;;0.43;;
15404;SDS011;7801;48.124;11.590;2024-01-30T10:56:05;0.70;;;0.70;;
15404;SDS011;7801;48.124;11.590;2024-01-30T10:58:32;1.03;;;0.63;;
15404;SDS011;7801;48.124;11.590;2024-01-30T11:00:59;1.00;;;0.40;;
15404;SDS011;7801;48.124;11.590;2024-01-30T11:03:26;1.07;;;0.87;;
15404;SDS011;7801;48.124;11.590;2024-01-30T11:05:58;0.57;;;0.50;;
15404;SDS011;7801;48.124;11.590;2024-01-30T11:08:26;6.97;;;1.30;;
15404;SDS011;7801;48.124;11.590;2024-01-30T11:10:56;0.70;;;0.70;;
15404;SDS011;7801;48.124;11.590;2024-01-30T11:13:29;0.50;;;0.50;;
15404;SDS011;7801;48.124;11.590;2024-01-30T11:15:55;0.50;;;0.50;;
15404;SDS011;7801;48.124;11.590;2024-01-30T11:18:25;1.07;;;0.97;;
15404;SDS011;7801;48.124;11.590;2024-01-30T11:21:00;0.93;;;0.80;;
15404;SDS011;7801;48.124;11.590;2024-01-30T11:23:30;0.20;;;0.20;;
15404;SDS011;7801;48.124;11.590;2024-01-30T11:25:58;0.80;;;0.80;;
15404;SDS011;7801;48.124;11.590;2024-01-30T11:28:31;1.50;;;0.63;;
15404;SDS011;7801;48.124;11.590;2024-01-30T11:31:05;0.17;;;0.17;;
15404;SDS011;7801;48.124;11.590;2024-01-30T11:33:32;0.60;;;0.50;;
15404;SDS011;7801;48.124;11.590;2024-01-30T11:36:00;0.60;;;0.60;;
15404;SDS011;7801;48.124;11.590;2024-01-30T11:38:26;0.30;;;0.30;;
15404;SDS011;7801;48.124;11.590;2024-01-30T11:40:53;5.30;;;0.60;;
15404;SDS011;7801;48.124;11.590;2024-01-30T11:43:21;0.37;;;0.37;;
15404;SDS011;7801;48.124;11.590;2024-01-30T11:45:47;0.87;;;0.87;;
15404;SDS011;7801;48.124;11.590;2024-01-30T11:48:14;0.53;;;0.53;;
15404;SDS011;7801;48.124;11.590;2024-01-30T11:50:39;0.30;;;0.30;;
15404;SDS011;7801;48.124;11.590;2024-01-30T11:53:05;0.67;;;0.40;;
15404;SDS011;7801;48.124;11.590;2024-01-30T11:55:31;0.90;;;0.47;;
15404;SDS011;7801;48.124;11.590;2024-01-30T11:58:00;5.10;;;0.70;;
15404;SDS011;7801;48.124;11.590;2024-01-30T12:00:27;0.07;;;0.07;;
15404;SDS011;7801;48.124;11.590;2024-01-30T12:02:54;2.07;;;0.57;;
15404;SDS011;7801;48.124;11.590;2024-01-30T12:05:26;0.70;;;0.30;;
15404;SDS011;7801;48.124;11.590;2024-01-30T12:07:52;1.17;;;0.87;;
15404;SDS011;7801;48.124;11.590;2024-01-30T12:10:20;0.60;;;0.60;;
15404;SDS011;7801;48.124;11.590;2024-01-30T12:12:51;0.33;;;0.33;;
15404;SDS011;7801;48.124;11.590;2024-01-30T12:15:18;0.60;;;0.50;;
15404;SDS011;7801;48.124;11.590;2024-01-30T12:17:47;0.27;;;0.27;;
15404;SDS011;7801;48.124;11.590;2024-01-30T12:20:13;0.30;;;0.30;;
15404;SDS011;7801;48.124;11.590;2024-01-30T12:22:45;0.27;;;0.27;;
15404;SDS011;7801;48.124;11.590;2024-01-30T12:25:20;0.17;;;0.17;;
15404;SDS011;7801;48.124;11.590;2024-01-30T12:27:46;0.43;;;0.43;;
15404;SDS011;7801;48.124;11.590;2024-01-30T12:30:19;0.73;;;0.73;;
15404;SDS011;7801;48.124;11.590;2024-01-30T12:32:46;0.67;;;0.57;;
15404;SDS011;7801;48.124;11.590;2024-01-30T12:35:13;1.13;;;0.63;;
15404;SDS011;7801;48.124;11.590;2024-01-30T12:37:45;1.33;;;1.03;;
15404;SDS011;7801;48.124;11.590;2024-01-30T12:40:14;0.30;;;0.30;;
15404;SDS011;7801;48.124;11.590;2024-01-30T12:42:43;1.03;;;0.93;;
15404;SDS011;7801;48.124;11.590;2024-01-30T12:45:15;0.40;;;0.40;;
15404;SDS011;7801;48.124;11.590;2024-01-30T12:47:41;0.40;;;0.40;;
15404;SDS011;7801;48.124;11.590;2024-01-30T12:50:08;0.40;;;0.40;;
15404;SDS011;7801;48.124;11.590;2024-01-30T12:52:34;0.63;;;0.63;;
15404;SDS011;7801;48.124;11.590;2024-01-30T12:55:02;0.20;;;0.20;;
15404;SDS011;7801;48.124;11.590;2024-01-30T12:57:29;0.30;;;0.30;;
15404;SDS011;7801;48.124;11.590;2024-01-30T12:59:54;0.57;;;0.53;;
15404;SDS011;7801;48.124;11.590;2024-01-30T13:02:20;0.50;;;0.50;;
15404;SDS011;7801;48.124;11.590;2024-01-30T13:04:59;0.63;;;0.60;;
15404;SDS011;7801;48.124;11.590;2024-01-30T13:07:25;0.33;;;0.33;;
15404;SDS011;7801;48.124;11.590;2024-01-30T13:09:51;0.60;;;0.60;;
15404;SDS011;7801;48.124;11.590;2024-01-30T13:12:18;0.53;;;0.40;;
15404;SDS011;7801;48.124;11.590;2024-01-30T13:14:43;0.30;;;0.27;;
15404;SDS011;7801;48.124;11.590;2024-01-30T13:17:09;0.87;;;0.87;;
15404;SDS011;7801;48.124;11.590;2024-01-30T13:19:34;0.93;;;0.93;;
15404;SDS011;7801;48.124;11.590;2024-01-30T13:22:01;0.33;;;0.33;;
15404;SDS011;7801;48.124;11.590;2024-01-30T13:24:28;0.30;;;0.30;;
15404;SDS011;7801;48.124;11.590;2024-01-30T13:26:54;6.77;;;0.73;;
15404;SDS011;7801;48.124;11.590;2024-01-30T13:29:20;0.23;;;0.23;;
15404;SDS011;7801;48.124;11.590;2024-01-30T13:31:47;1.23;;;0.57;;
15404;SDS011;7801;48.124;11.590;2024-01-30T13:34:13;0.30;;;0.30;;
15404;SDS011;7801;48.124;11.590;2024-01-30T13:36:41;0.67;;;0.67;;
15404;SDS011;7801;48.124;11.590;2024-01-30T13:39:08;1.60;;;0.60;;
15404;SDS011;7801;48.124;11.590;2024-01-30T13:41:35;0.50;;;0.50;;
15404;SDS011;7801;48.124;11.590;2024-01-30T13:44:01;0.37;;;0.37;;
15404;SDS011;7801;48.124;11.590;2024-01-30T13:46:28;0.50;;;0.50;;
15404;SDS011;7801;48.124;11.590;2024-01-30T13:48:54;0.70;;;0.70;;
15404;SDS011;7801;48.124;11.590;2024-01-30T13:51:20;0.53;;;0.53;;
15404;SDS011;7801;48.124;11.590;2024-01-30T13:53:50;0.53;;;0.53;;
15404;SDS011;7801;48.124;11.590;2024-01-30T13:56:16;0.73;;;0.73;;
15404;SDS011;7801;48.124;11.590;2024-01-30T13:58:41;0.77;;;0.63;;
15404;SDS011;7801;48.124;11.590;2024-01-30T14:01:06;0.47;;;0.47;;
15404;SDS011;7801;48.124;11.590;2024-01-30T14:03:33;1.17;;;0.50;;
15404;SDS011;7801;48.124;11.590;2024-01-30T14:06:04;0.30;;;0.23;;
15404;SDS011;7801;48.124;11.590;2024-01-30T14:08:31;0.43;;;0.43;;
15404;SDS011;7801;48.124;11.590;2024-01-30T14:10:56;0.50;;;0.50;;
15404;SDS011;7801;48.124;11.590;2024-01-30T14:13:23;1.10;;;0.60;;
15404;SDS011;7801;48.124;11.590;2024-01-30T14:15:50;0.47;;;0.47;;
15404;SDS011;7801;48.124;11.590;2024-01-30T14:18:19;0.40;;;0.40;;
15404;SDS011;7801;48.124;11.590;2024-01-30T14:20:46;1.97;;;0.73;;
15404;SDS011;7801;48.124;11.590;2024-01-30T14:23:11;0.63;;;0.53;;
15404;SDS011;7801;48.124;11.590;2024-01-30T14:25:41;0.37;;;0.33;;
15404;SDS011;7801;48.124;11.590;2024-01-30T14:28:06;0.37;;;0.37;;
15404;SDS011;7801;48.124;11.590;2024-01-30T14:30:33;0.30;;;0.30;;
15404;SDS011;7801;48.124;11.590;2024-01-30T14:33:01;0.30;;;0.30;;
15404;SDS011;7801;48.124;11.590;2024-01-30T14:35:28;0.33;;;0.33;;
15404;SDS011;7801;48.124;11.590;2024-01-30T14:37:55;0.50;;;0.50;;
15404;SDS011;7801;48.124;11.590;2024-01-30T14:40:20;1.17;;;0.63;;
15404;SDS011;7801;48.124;11.590;2024-01-30T14:42:47;0.57;;;0.57;;
15404;SDS011;7801;48.124;11.590;2024-01-30T14:45:13;1.90;;;0.40;;